Birchwood Airport Birchwood US
ICAO: PABV
IATA:
Category: Medium
Scheduled Services:

Elevation: 83 ft
TransAlt. 18000 ft.

Airport Communications:
AWOS 3:135.55
ANCHORAGE CNTR:132.3
CTAF/UNICOM:123

PABV Zoom In..

If Map Doesn't Load, Click Here

Runways:

(A) RW 02L length 4010 ft width 100 ft
---- / hdg 14

(B) RW 02R length 2200 ft width 50 ft
---- / hdg 14

(C) RW 20L length 2200 ft width 50 ft
---- / hdg 194

(D) RW 20R length 4010 ft width 100 ft
---- / hdg 194

Location; PABV
Day. 21 / Time. 14.56 Zulu
* Altimeter: 30.04
* Temperature: 08° c. 46.4°f.
* Wind from: 000° Speed 00 kn.
Dewpoint: 06° c.
Visibility: 10 Statute Miles.
Clouds: Scattered 6500 ft.
Clouds: Overcast 8000 ft.

PABV 211456Z AUTO 00000KT 10SM SCT065 OVC080 08/06 A3004 RMK AO2 SLP180 T00830061 58009


Wind - Calm.

 
 
jpsmedia.com for Web Design worldairports.se 2018   terms of use